sensor_id;sensor_type;location;lat;lon;timestamp;temperature;humidity
15133;DHT22;7667;51.232;17.110;2023-03-23T00:01:28;7.20;99.90
15133;DHT22;7667;51.232;17.110;2023-03-23T00:03:57;7.30;99.90
15133;DHT22;7667;51.232;17.110;2023-03-23T00:06:26;7.20;99.90
15133;DHT22;7667;51.232;17.110;2023-03-23T00:08:54;7.30;99.90
15133;DHT22;7667;51.232;17.110;2023-03-23T00:11:27;7.60;99.90
15133;DHT22;7667;51.232;17.110;2023-03-23T00:13:59;7.70;99.90
15133;DHT22;7667;51.232;17.110;2023-03-23T00:16:29;7.60;99.90
15133;DHT22;7667;51.232;17.110;2023-03-23T00:19:03;7.50;99.90
15133;DHT22;7667;51.232;17.110;2023-03-23T00:21:33;7.40;99.90
15133;DHT22;7667;51.232;17.110;2023-03-23T00:26:34;7.10;99.90
15133;DHT22;7667;51.232;17.110;2023-03-23T00:29:05;7.30;99.90
15133;DHT22;7667;51.232;17.110;2023-03-23T00:31:33;7.40;99.90
15133;DHT22;7667;51.232;17.110;2023-03-23T00:34:04;7.40;99.90
15133;DHT22;7667;51.232;17.110;2023-03-23T00:36:32;7.30;99.90
15133;DHT22;7667;51.232;17.110;2023-03-23T00:39:02;7.40;99.90
15133;DHT22;7667;51.232;17.110;2023-03-23T00:41:30;7.30;99.90
15133;DHT22;7667;51.232;17.110;2023-03-23T00:43:57;7.40;99.90
15133;DHT22;7667;51.232;17.110;2023-03-23T00:46:26;7.40;99.90
15133;DHT22;7667;51.232;17.110;2023-03-23T00:48:55;7.40;99.90
15133;DHT22;7667;51.232;17.110;2023-03-23T00:51:23;7.40;99.90
15133;DHT22;7667;51.232;17.110;2023-03-23T00:53:50;7.30;99.90
15133;DHT22;7667;51.232;17.110;2023-03-23T00:56:16;7.40;99.90
15133;DHT22;7667;51.232;17.110;2023-03-23T00:58:43;7.40;99.90
15133;DHT22;7667;51.232;17.110;2023-03-23T01:01:09;7.40;99.90
15133;DHT22;7667;51.232;17.110;2023-03-23T01:03:36;7.40;99.90
15133;DHT22;7667;51.232;17.110;2023-03-23T01:06:07;7.40;99.90
15133;DHT22;7667;51.232;17.110;2023-03-23T01:08:39;7.30;99.90
15133;DHT22;7667;51.232;17.110;2023-03-23T01:11:15;7.20;99.90
15133;DHT22;7667;51.232;17.110;2023-03-23T01:13:42;7.30;99.90
15133;DHT22;7667;51.232;17.110;2023-03-23T01:16:10;7.30;99.90
15133;DHT22;7667;51.232;17.110;2023-03-23T01:18:37;7.30;99.90
15133;DHT22;7667;51.232;17.110;2023-03-23T01:21:09;7.40;99.90
15133;DHT22;7667;51.232;17.110;2023-03-23T01:23:38;7.30;99.90
15133;DHT22;7667;51.232;17.110;2023-03-23T01:26:11;7.30;99.90
15133;DHT22;7667;51.232;17.110;2023-03-23T01:28:39;7.40;99.90
15133;DHT22;7667;51.232;17.110;2023-03-23T01:31:10;7.40;99.90
15133;DHT22;7667;51.232;17.110;2023-03-23T01:33:39;7.40;99.90
15133;DHT22;7667;51.232;17.110;2023-03-23T01:36:08;7.40;99.90
15133;DHT22;7667;51.232;17.110;2023-03-23T01:38:36;7.50;99.90
15133;DHT22;7667;51.232;17.110;2023-03-23T01:41:03;7.60;99.90
15133;DHT22;7667;51.232;17.110;2023-03-23T01:43:30;7.60;99.90
15133;DHT22;7667;51.232;17.110;2023-03-23T01:45:57;7.60;99.90
15133;DHT22;7667;51.232;17.110;2023-03-23T01:48:33;7.50;99.90
15133;DHT22;7667;51.232;17.110;2023-03-23T01:51:09;7.40;99.90
15133;DHT22;7667;51.232;17.110;2023-03-23T01:54:02;7.30;99.90
15133;DHT22;7667;51.232;17.110;2023-03-23T01:56:35;7.20;99.90
15133;DHT22;7667;51.232;17.110;2023-03-23T01:59:07;7.10;99.90
15133;DHT22;7667;51.232;17.110;2023-03-23T02:01:35;7.00;99.90
15133;DHT22;7667;51.232;17.110;2023-03-23T02:04:05;7.10;99.90
15133;DHT22;7667;51.232;17.110;2023-03-23T02:06:33;7.10;99.90
15133;DHT22;7667;51.232;17.110;2023-03-23T02:08:59;7.00;99.90
15133;DHT22;7667;51.232;17.110;2023-03-23T02:11:27;7.00;99.90
15133;DHT22;7667;51.232;17.110;2023-03-23T02:13:53;7.00;99.90
15133;DHT22;7667;51.232;17.110;2023-03-23T02:24:58;7.10;99.90
15133;DHT22;7667;51.232;17.110;2023-03-23T02:33:47;7.30;99.90
15133;DHT22;7667;51.232;17.110;2023-03-23T02:37:01;7.30;99.90
15133;DHT22;7667;51.232;17.110;2023-03-23T02:39:33;7.30;99.90
15133;DHT22;7667;51.232;17.110;2023-03-23T02:42:08;7.30;99.90
15133;DHT22;7667;51.232;17.110;2023-03-23T02:44:40;7.30;99.90
15133;DHT22;7667;51.232;17.110;2023-03-23T02:47:12;7.40;99.90
15133;DHT22;7667;51.232;17.110;2023-03-23T02:49:46;7.40;99.90
15133;DHT22;7667;51.232;17.110;2023-03-23T02:52:18;7.50;99.90
15133;DHT22;7667;51.232;17.110;2023-03-23T02:54:49;7.50;99.90
15133;DHT22;7667;51.232;17.110;2023-03-23T02:57:17;7.60;99.90
15133;DHT22;7667;51.232;17.110;2023-03-23T02:59:45;7.60;99.90
15133;DHT22;7667;51.232;17.110;2023-03-23T03:02:26;7.70;99.90
15133;DHT22;7667;51.232;17.110;2023-03-23T03:08:05;7.70;99.90
15133;DHT22;7667;51.232;17.110;2023-03-23T03:10:55;7.80;99.90
15133;DHT22;7667;51.232;17.110;2023-03-23T03:13:36;7.80;99.90
15133;DHT22;7667;51.232;17.110;2023-03-23T03:16:38;7.90;99.90
15133;DHT22;7667;51.232;17.110;2023-03-23T03:19:41;7.90;99.90
15133;DHT22;7667;51.232;17.110;2023-03-23T03:22:11;7.90;99.90
15133;DHT22;7667;51.232;17.110;2023-03-23T03:24:38;7.90;99.90
15133;DHT22;7667;51.232;17.110;2023-03-23T03:27:11;7.90;99.90
15133;DHT22;7667;51.232;17.110;2023-03-23T03:29:45;7.80;99.90
15133;DHT22;7667;51.232;17.110;2023-03-23T03:32:20;7.80;99.90
15133;DHT22;7667;51.232;17.110;2023-03-23T03:34:49;7.80;99.90
15133;DHT22;7667;51.232;17.110;2023-03-23T03:37:17;7.70;99.90
15133;DHT22;7667;51.232;17.110;2023-03-23T03:39:44;7.80;99.90
15133;DHT22;7667;51.232;17.110;2023-03-23T03:42:11;7.80;99.90
15133;DHT22;7667;51.232;17.110;2023-03-23T03:44:37;7.80;99.90
15133;DHT22;7667;51.232;17.110;2023-03-23T03:47:04;7.80;99.90
15133;DHT22;7667;51.232;17.110;2023-03-23T03:49:30;7.80;99.90
15133;DHT22;7667;51.232;17.110;2023-03-23T03:51:56;7.80;99.90
15133;DHT22;7667;51.232;17.110;2023-03-23T03:54:22;7.80;99.90
15133;DHT22;7667;51.232;17.110;2023-03-23T03:56:49;7.80;99.90
15133;DHT22;7667;51.232;17.110;2023-03-23T03:59:17;7.90;99.90
15133;DHT22;7667;51.232;17.110;2023-03-23T04:01:43;7.90;99.90
15133;DHT22;7667;51.232;17.110;2023-03-23T04:04:10;7.80;99.90
15133;DHT22;7667;51.232;17.110;2023-03-23T04:06:36;7.90;99.90
15133;DHT22;7667;51.232;17.110;2023-03-23T04:09:05;7.90;99.90
15133;DHT22;7667;51.232;17.110;2023-03-23T04:11:32;8.00;99.90
15133;DHT22;7667;51.232;17.110;2023-03-23T04:13:59;8.00;99.90
15133;DHT22;7667;51.232;17.110;2023-03-23T04:16:25;7.90;99.90
15133;DHT22;7667;51.232;17.110;2023-03-23T04:18:52;7.90;99.90
15133;DHT22;7667;51.232;17.110;2023-03-23T04:21:21;7.90;99.90
15133;DHT22;7667;51.232;17.110;2023-03-23T04:23:48;7.90;99.90
15133;DHT22;7667;51.232;17.110;2023-03-23T04:26:14;7.90;99.90
15133;DHT22;7667;51.232;17.110;2023-03-23T04:28:41;8.00;99.90
15133;DHT22;7667;51.232;17.110;2023-03-23T04:31:08;8.10;99.90
15133;DHT22;7667;51.232;17.110;2023-03-23T04:33:35;8.10;99.90
15133;DHT22;7667;51.232;17.110;2023-03-23T04:36:03;8.10;99.90
15133;DHT22;7667;51.232;17.110;2023-03-23T04:38:31;8.20;99.90
15133;DHT22;7667;51.232;17.110;2023-03-23T04:41:00;8.20;99.90
15133;DHT22;7667;51.232;17.110;2023-03-23T04:43:28;8.20;99.90
15133;DHT22;7667;51.232;17.110;2023-03-23T04:45:56;8.30;99.90
15133;DHT22;7667;51.232;17.110;2023-03-23T04:48:29;8.30;99.90
15133;DHT22;7667;51.232;17.110;2023-03-23T04:50:56;8.40;99.90
15133;DHT22;7667;51.232;17.110;2023-03-23T04:53:25;8.40;99.90
15133;DHT22;7667;51.232;17.110;2023-03-23T04:55:51;8.40;99.90
15133;DHT22;7667;51.232;17.110;2023-03-23T04:58:18;8.40;99.90
15133;DHT22;7667;51.232;17.110;2023-03-23T05:00:45;8.40;99.90
15133;DHT22;7667;51.232;17.110;2023-03-23T05:03:19;8.40;99.90
15133;DHT22;7667;51.232;17.110;2023-03-23T05:05:46;8.50;99.90
15133;DHT22;7667;51.232;17.110;2023-03-23T05:08:19;8.40;99.90
15133;DHT22;7667;51.232;17.110;2023-03-23T05:10:57;8.40;99.90
15133;DHT22;7667;51.232;17.110;2023-03-23T05:13:25;8.20;99.90
15133;DHT22;7667;51.232;17.110;2023-03-23T05:15:53;8.30;99.90
15133;DHT22;7667;51.232;17.110;2023-03-23T05:18:19;8.40;99.90
15133;DHT22;7667;51.232;17.110;2023-03-23T05:20:46;8.40;99.90
15133;DHT22;7667;51.232;17.110;2023-03-23T05:23:13;8.50;99.90
15133;DHT22;7667;51.232;17.110;2023-03-23T05:25:40;8.60;99.90
15133;DHT22;7667;51.232;17.110;2023-03-23T05:28:07;8.70;99.90
15133;DHT22;7667;51.232;17.110;2023-03-23T05:30:37;8.70;99.90
15133;DHT22;7667;51.232;17.110;2023-03-23T05:33:04;8.90;99.90
15133;DHT22;7667;51.232;17.110;2023-03-23T05:35:31;9.00;99.90
15133;DHT22;7667;51.232;17.110;2023-03-23T05:37:57;9.10;99.90
15133;DHT22;7667;51.232;17.110;2023-03-23T05:40:23;9.10;99.90
15133;DHT22;7667;51.232;17.110;2023-03-23T05:42:51;9.10;99.90
15133;DHT22;7667;51.232;17.110;2023-03-23T05:45:18;9.20;99.90
15133;DHT22;7667;51.232;17.110;2023-03-23T05:47:45;9.20;99.90
15133;DHT22;7667;51.232;17.110;2023-03-23T05:50:12;9.30;99.90
15133;DHT22;7667;51.232;17.110;2023-03-23T05:52:40;9.30;99.90
15133;DHT22;7667;51.232;17.110;2023-03-23T05:55:07;9.30;99.90
15133;DHT22;7667;51.232;17.110;2023-03-23T05:57:34;9.30;99.90
15133;DHT22;7667;51.232;17.110;2023-03-23T06:00:00;9.30;99.90
15133;DHT22;7667;51.232;17.110;2023-03-23T06:02:39;9.40;99.90
15133;DHT22;7667;51.232;17.110;2023-03-23T06:05:10;9.40;99.90
15133;DHT22;7667;51.232;17.110;2023-03-23T06:07:36;9.30;99.90
15133;DHT22;7667;51.232;17.110;2023-03-23T06:10:05;9.50;99.90
15133;DHT22;7667;51.232;17.110;2023-03-23T06:12:33;9.80;99.90
15133;DHT22;7667;51.232;17.110;2023-03-23T06:14:59;10.10;99.90
15133;DHT22;7667;51.232;17.110;2023-03-23T06:17:26;10.30;99.90
15133;DHT22;7667;51.232;17.110;2023-03-23T06:19:53;10.40;99.90
15133;DHT22;7667;51.232;17.110;2023-03-23T06:22:19;10.50;99.90
15133;DHT22;7667;51.232;17.110;2023-03-23T06:24:46;10.80;99.90
15133;DHT22;7667;51.232;17.110;2023-03-23T06:27:13;11.10;99.90
15133;DHT22;7667;51.232;17.110;2023-03-23T06:29:39;11.40;99.90
15133;DHT22;7667;51.232;17.110;2023-03-23T06:32:05;11.60;99.90
15133;DHT22;7667;51.232;17.110;2023-03-23T06:34:33;11.70;99.90
15133;DHT22;7667;51.232;17.110;2023-03-23T06:36:59;11.80;99.90
15133;DHT22;7667;51.232;17.110;2023-03-23T06:39:26;11.90;99.90
15133;DHT22;7667;51.232;17.110;2023-03-23T06:41:52;12.00;99.90
15133;DHT22;7667;51.232;17.110;2023-03-23T06:44:18;12.10;99.90
15133;DHT22;7667;51.232;17.110;2023-03-23T06:46:45;12.30;99.90
15133;DHT22;7667;51.232;17.110;2023-03-23T06:49:11;12.50;99.90
15133;DHT22;7667;51.232;17.110;2023-03-23T06:51:38;12.70;99.90
15133;DHT22;7667;51.232;17.110;2023-03-23T06:54:04;12.90;99.90
15133;DHT22;7667;51.232;17.110;2023-03-23T06:56:31;13.20;99.90
15133;DHT22;7667;51.232;17.110;2023-03-23T06:58:57;13.30;99.90
15133;DHT22;7667;51.232;17.110;2023-03-23T07:01:24;13.30;99.90
15133;DHT22;7667;51.232;17.110;2023-03-23T07:03:50;13.50;99.90
15133;DHT22;7667;51.232;17.110;2023-03-23T07:06:17;13.60;99.90
15133;DHT22;7667;51.232;17.110;2023-03-23T07:08:43;13.70;99.90
15133;DHT22;7667;51.232;17.110;2023-03-23T07:11:09;13.80;99.90
15133;DHT22;7667;51.232;17.110;2023-03-23T07:13:36;13.90;99.90
15133;DHT22;7667;51.232;17.110;2023-03-23T07:16:05;13.80;99.90
15133;DHT22;7667;51.232;17.110;2023-03-23T07:18:32;13.70;99.90
15133;DHT22;7667;51.232;17.110;2023-03-23T07:20:59;13.80;99.90
15133;DHT22;7667;51.232;17.110;2023-03-23T07:23:25;13.90;99.90
15133;DHT22;7667;51.232;17.110;2023-03-23T07:25:52;14.00;99.90
15133;DHT22;7667;51.232;17.110;2023-03-23T07:28:19;14.00;99.90
15133;DHT22;7667;51.232;17.110;2023-03-23T07:30:45;13.80;99.90
15133;DHT22;7667;51.232;17.110;2023-03-23T07:33:12;13.70;99.90
15133;DHT22;7667;51.232;17.110;2023-03-23T07:35:39;13.60;99.90
15133;DHT22;7667;51.232;17.110;2023-03-23T07:38:06;13.80;99.90
15133;DHT22;7667;51.232;17.110;2023-03-23T07:40:33;13.90;99.90
15133;DHT22;7667;51.232;17.110;2023-03-23T07:43:00;14.10;99.90
15133;DHT22;7667;51.232;17.110;2023-03-23T07:45:29;14.40;99.90
15133;DHT22;7667;51.232;17.110;2023-03-23T07:47:55;14.60;99.90
15133;DHT22;7667;51.232;17.110;2023-03-23T07:50:22;15.00;99.90
15133;DHT22;7667;51.232;17.110;2023-03-23T07:52:51;15.10;99.90
15133;DHT22;7667;51.232;17.110;2023-03-23T07:55:19;15.00;99.90
15133;DHT22;7667;51.232;17.110;2023-03-23T07:57:47;15.00;99.90
15133;DHT22;7667;51.232;17.110;2023-03-23T08:00:16;14.90;99.90
15133;DHT22;7667;51.232;17.110;2023-03-23T08:02:47;14.90;99.90
15133;DHT22;7667;51.232;17.110;2023-03-23T08:05:15;14.80;99.90
15133;DHT22;7667;51.232;17.110;2023-03-23T08:07:42;14.80;99.90
15133;DHT22;7667;51.232;17.110;2023-03-23T08:10:10;14.80;99.90
15133;DHT22;7667;51.232;17.110;2023-03-23T08:12:39;14.80;99.90
15133;DHT22;7667;51.232;17.110;2023-03-23T08:15:07;14.60;99.90
15133;DHT22;7667;51.232;17.110;2023-03-23T08:17:35;14.60;99.90
15133;DHT22;7667;51.232;17.110;2023-03-23T08:20:02;14.70;99.90
15133;DHT22;7667;51.232;17.110;2023-03-23T08:22:43;14.70;99.90
15133;DHT22;7667;51.232;17.110;2023-03-23T08:25:13;14.90;99.90
15133;DHT22;7667;51.232;17.110;2023-03-23T08:27:40;15.00;99.90
15133;DHT22;7667;51.232;17.110;2023-03-23T08:30:16;15.10;99.90
15133;DHT22;7667;51.232;17.110;2023-03-23T08:32:43;15.10;99.90
15133;DHT22;7667;51.232;17.110;2023-03-23T08:35:11;15.10;99.90
15133;DHT22;7667;51.232;17.110;2023-03-23T08:37:39;15.10;99.90
15133;DHT22;7667;51.232;17.110;2023-03-23T08:40:09;15.10;99.90
15133;DHT22;7667;51.232;17.110;2023-03-23T08:42:37;15.50;99.90
15133;DHT22;7667;51.232;17.110;2023-03-23T08:45:06;15.70;99.90
15133;DHT22;7667;51.232;17.110;2023-03-23T08:47:35;15.80;99.90
15133;DHT22;7667;51.232;17.110;2023-03-23T08:50:06;16.00;99.90
15133;DHT22;7667;51.232;17.110;2023-03-23T08:52:34;16.20;99.90
15133;DHT22;7667;51.232;17.110;2023-03-23T08:55:01;16.40;99.90
15133;DHT22;7667;51.232;17.110;2023-03-23T08:57:29;16.60;99.90
15133;DHT22;7667;51.232;17.110;2023-03-23T08:59:55;16.70;99.90
15133;DHT22;7667;51.232;17.110;2023-03-23T09:02:27;17.00;99.90
15133;DHT22;7667;51.232;17.110;2023-03-23T09:04:54;17.20;99.90
15133;DHT22;7667;51.232;17.110;2023-03-23T09:07:20;16.90;99.90
15133;DHT22;7667;51.232;17.110;2023-03-23T09:09:46;16.40;99.90
15133;DHT22;7667;51.232;17.110;2023-03-23T09:12:13;16.20;99.90
15133;DHT22;7667;51.232;17.110;2023-03-23T09:14:40;16.10;99.90
15133;DHT22;7667;51.232;17.110;2023-03-23T09:17:07;16.20;99.90
15133;DHT22;7667;51.232;17.110;2023-03-23T09:19:34;16.30;99.90
15133;DHT22;7667;51.232;17.110;2023-03-23T09:22:01;16.50;99.90
15133;DHT22;7667;51.232;17.110;2023-03-23T09:24:30;16.50;99.90
15133;DHT22;7667;51.232;17.110;2023-03-23T09:26:57;16.60;99.90
15133;DHT22;7667;51.232;17.110;2023-03-23T09:29:25;16.50;99.90
15133;DHT22;7667;51.232;17.110;2023-03-23T09:31:53;16.30;99.90
15133;DHT22;7667;51.232;17.110;2023-03-23T09:34:20;16.00;99.90
15133;DHT22;7667;51.232;17.110;2023-03-23T09:36:46;15.90;99.90
15133;DHT22;7667;51.232;17.110;2023-03-23T09:39:14;16.10;99.90
15133;DHT22;7667;51.232;17.110;2023-03-23T09:45:06;16.30;99.90
15133;DHT22;7667;51.232;17.110;2023-03-23T09:50:49;16.80;99.90
15133;DHT22;7667;51.232;17.110;2023-03-23T09:53:40;16.70;99.90
15133;DHT22;7667;51.232;17.110;2023-03-23T09:56:12;16.70;99.90
15133;DHT22;7667;51.232;17.110;2023-03-23T10:04:51;17.10;99.90
15133;DHT22;7667;51.232;17.110;2023-03-23T10:07:26;17.10;99.90
15133;DHT22;7667;51.232;17.110;2023-03-23T10:09:56;16.90;99.90
15133;DHT22;7667;51.232;17.110;2023-03-23T10:12:42;17.10;99.90
15133;DHT22;7667;51.232;17.110;2023-03-23T10:15:46;17.20;99.90
15133;DHT22;7667;51.232;17.110;2023-03-23T10:21:22;16.90;99.90
15133;DHT22;7667;51.232;17.110;2023-03-23T10:24:01;16.90;99.90
15133;DHT22;7667;51.232;17.110;2023-03-23T10:26:45;17.20;99.90
15133;DHT22;7667;51.232;17.110;2023-03-23T10:32:17;17.00;99.90
15133;DHT22;7667;51.232;17.110;2023-03-23T10:34:54;17.00;99.90
15133;DHT22;7667;51.232;17.110;2023-03-23T10:37:27;16.90;99.90
15133;DHT22;7667;51.232;17.110;2023-03-23T10:39:58;16.80;99.90
15133;DHT22;7667;51.232;17.110;2023-03-23T10:42:33;16.80;99.90
15133;DHT22;7667;51.232;17.110;2023-03-23T10:45:24;16.70;99.90
15133;DHT22;7667;51.232;17.110;2023-03-23T10:48:08;16.70;99.90
15133;DHT22;7667;51.232;17.110;2023-03-23T10:50:45;16.60;99.90
15133;DHT22;7667;51.232;17.110;2023-03-23T10:53:18;16.50;99.90
15133;DHT22;7667;51.232;17.110;2023-03-23T10:55:47;16.60;99.90
15133;DHT22;7667;51.232;17.110;2023-03-23T10:58:29;16.50;99.90
15133;DHT22;7667;51.232;17.110;2023-03-23T11:01:03;16.60;99.90
15133;DHT22;7667;51.232;17.110;2023-03-23T11:03:45;16.90;99.90
15133;DHT22;7667;51.232;17.110;2023-03-23T11:06:31;17.20;99.90
15133;DHT22;7667;51.232;17.110;2023-03-23T11:09:17;17.20;99.90
15133;DHT22;7667;51.232;17.110;2023-03-23T11:11:55;17.40;99.90
15133;DHT22;7667;51.232;17.110;2023-03-23T11:14:28;17.90;99.90
15133;DHT22;7667;51.232;17.110;2023-03-23T11:16:58;17.70;99.90
15133;DHT22;7667;51.232;17.110;2023-03-23T11:19:31;17.80;99.90
15133;DHT22;7667;51.232;17.110;2023-03-23T11:24:44;18.00;99.90
15133;DHT22;7667;51.232;17.110;2023-03-23T11:27:14;18.20;99.90
15133;DHT22;7667;51.232;17.110;2023-03-23T11:30:09;18.40;99.90
15133;DHT22;7667;51.232;17.110;2023-03-23T11:32:37;18.00;99.90
15133;DHT22;7667;51.232;17.110;2023-03-23T11:35:06;17.50;99.90
15133;DHT22;7667;51.232;17.110;2023-03-23T11:37:43;17.40;99.90
15133;DHT22;7667;51.232;17.110;2023-03-23T11:40:22;17.40;99.90
15133;DHT22;7667;51.232;17.110;2023-03-23T11:43:00;17.40;99.90
15133;DHT22;7667;51.232;17.110;2023-03-23T11:45:41;17.20;99.90
15133;DHT22;7667;51.232;17.110;2023-03-23T11:56:50;17.40;99.90
15133;DHT22;7667;51.232;17.110;2023-03-23T11:59:31;17.10;99.90
15133;DHT22;7667;51.232;17.110;2023-03-23T12:05:02;17.20;99.90
15133;DHT22;7667;51.232;17.110;2023-03-23T12:08:44;17.20;99.90
15133;DHT22;7667;51.232;17.110;2023-03-23T12:11:35;17.30;99.90
15133;DHT22;7667;51.232;17.110;2023-03-23T12:14:32;17.20;99.90
15133;DHT22;7667;51.232;17.110;2023-03-23T12:17:23;17.10;99.90
15133;DHT22;7667;51.232;17.110;2023-03-23T12:25:47;16.80;99.90
15133;DHT22;7667;51.232;17.110;2023-03-23T12:31:29;16.50;99.90
15133;DHT22;7667;51.232;17.110;2023-03-23T12:37:35;16.60;99.90
15133;DHT22;7667;51.232;17.110;2023-03-23T12:43:26;16.90;99.90
15133;DHT22;7667;51.232;17.110;2023-03-23T12:48:49;16.60;99.90
15133;DHT22;7667;51.232;17.110;2023-03-23T12:54:34;16.90;99.90
15133;DHT22;7667;51.232;17.110;2023-03-23T12:59:54;17.10;99.90
15133;DHT22;7667;51.232;17.110;2023-03-23T13:08:00;17.00;99.90
15133;DHT22;7667;51.232;17.110;2023-03-23T13:10:46;16.70;99.90
15133;DHT22;7667;51.232;17.110;2023-03-23T13:13:24;16.80;99.90
15133;DHT22;7667;51.232;17.110;2023-03-23T13:19:06;16.80;99.90
15133;DHT22;7667;51.232;17.110;2023-03-23T13:21:43;16.90;99.90
15133;DHT22;7667;51.232;17.110;2023-03-23T13:24:22;16.90;99.90
15133;DHT22;7667;51.232;17.110;2023-03-23T13:26:51;17.00;99.90
15133;DHT22;7667;51.232;17.110;2023-03-23T13:29:22;17.00;99.90
15133;DHT22;7667;51.232;17.110;2023-03-23T13:31:50;17.00;99.90
15133;DHT22;7667;51.232;17.110;2023-03-23T13:34:28;16.90;99.90
15133;DHT22;7667;51.232;17.110;2023-03-23T13:37:05;17.30;99.90
15133;DHT22;7667;51.232;17.110;2023-03-23T13:39:49;17.00;99.90
15133;DHT22;7667;51.232;17.110;2023-03-23T13:42:25;16.90;99.90
15133;DHT22;7667;51.232;17.110;2023-03-23T13:45:06;16.90;99.90
15133;DHT22;7667;51.232;17.110;2023-03-23T13:47:38;16.90;99.90
15133;DHT22;7667;51.232;17.110;2023-03-23T14:00:47;17.00;99.90
15133;DHT22;7667;51.232;17.110;2023-03-23T14:03:40;16.90;99.90
15133;DHT22;7667;51.232;17.110;2023-03-23T14:06:13;16.80;99.90
15133;DHT22;7667;51.232;17.110;2023-03-23T14:08:43;16.60;99.90
15133;DHT22;7667;51.232;17.110;2023-03-23T14:11:14;16.40;99.90
15133;DHT22;7667;51.232;17.110;2023-03-23T14:14:01;16.20;99.90
15133;DHT22;7667;51.232;17.110;2023-03-23T14:16:43;16.10;99.90
15133;DHT22;7667;51.232;17.110;2023-03-23T14:19:28;16.10;99.90
15133;DHT22;7667;51.232;17.110;2023-03-23T14:21:57;16.00;99.90
15133;DHT22;7667;51.232;17.110;2023-03-23T14:24:29;16.10;99.90
15133;DHT22;7667;51.232;17.110;2023-03-23T14:29:37;16.00;99.90
15133;DHT22;7667;51.232;17.110;2023-03-23T14:32:06;16.10;99.90
15133;DHT22;7667;51.232;17.110;2023-03-23T14:34:35;16.20;99.90
15133;DHT22;7667;51.232;17.110;2023-03-23T14:37:02;16.50;99.90
15133;DHT22;7667;51.232;17.110;2023-03-23T14:39:29;17.00;99.90
15133;DHT22;7667;51.232;17.110;2023-03-23T14:42:06;17.40;99.90
15133;DHT22;7667;51.232;17.110;2023-03-23T14:44:45;17.40;99.90
15133;DHT22;7667;51.232;17.110;2023-03-23T14:47:26;17.40;99.90
15133;DHT22;7667;51.232;17.110;2023-03-23T14:49:58;17.30;99.90
15133;DHT22;7667;51.232;17.110;2023-03-23T14:52:28;17.10;99.90
15133;DHT22;7667;51.232;17.110;2023-03-23T14:55:17;16.90;99.90
15133;DHT22;7667;51.232;17.110;2023-03-23T14:57:47;16.70;99.90
15133;DHT22;7667;51.232;17.110;2023-03-23T15:00:22;16.40;99.90
15133;DHT22;7667;51.232;17.110;2023-03-23T15:02:53;16.20;99.90
15133;DHT22;7667;51.232;17.110;2023-03-23T15:05:31;16.30;99.90
15133;DHT22;7667;51.232;17.110;2023-03-23T15:08:03;16.20;99.90
15133;DHT22;7667;51.232;17.110;2023-03-23T15:10:32;16.20;99.90
15133;DHT22;7667;51.232;17.110;2023-03-23T15:12:59;16.20;99.90
15133;DHT22;7667;51.232;17.110;2023-03-23T15:15:28;16.20;99.90
15133;DHT22;7667;51.232;17.110;2023-03-23T15:17:57;16.30;99.90
15133;DHT22;7667;51.232;17.110;2023-03-23T15:20:28;16.30;99.90
15133;DHT22;7667;51.232;17.110;2023-03-23T15:23:22;16.30;99.90
15133;DHT22;7667;51.232;17.110;2023-03-23T15:25:55;16.20;99.90
15133;DHT22;7667;51.232;17.110;2023-03-23T15:28:31;16.20;99.90
15133;DHT22;7667;51.232;17.110;2023-03-23T15:31:04;16.10;99.90
15133;DHT22;7667;51.232;17.110;2023-03-23T15:33:36;16.10;99.90
15133;DHT22;7667;51.232;17.110;2023-03-23T15:36:08;16.20;99.90
15133;DHT22;7667;51.232;17.110;2023-03-23T15:38:46;16.10;99.90
15133;DHT22;7667;51.232;17.110;2023-03-23T15:41:27;16.00;99.90
15133;DHT22;7667;51.232;17.110;2023-03-23T15:43:58;15.80;99.90
15133;DHT22;7667;51.232;17.110;2023-03-23T15:46:35;15.80;99.90
15133;DHT22;7667;51.232;17.110;2023-03-23T15:49:08;15.70;99.90
15133;DHT22;7667;51.232;17.110;2023-03-23T15:51:39;15.70;99.90
15133;DHT22;7667;51.232;17.110;2023-03-23T15:54:14;15.60;99.90
15133;DHT22;7667;51.232;17.110;2023-03-23T15:56:42;15.60;99.90
15133;DHT22;7667;51.232;17.110;2023-03-23T15:59:09;15.50;99.90
15133;DHT22;7667;51.232;17.110;2023-03-23T16:01:40;15.50;99.90
15133;DHT22;7667;51.232;17.110;2023-03-23T16:04:14;15.40;99.90
15133;DHT22;7667;51.232;17.110;2023-03-23T16:06:45;15.40;99.90
15133;DHT22;7667;51.232;17.110;2023-03-23T16:09:15;15.50;99.90
15133;DHT22;7667;51.232;17.110;2023-03-23T16:11:44;15.60;99.90
15133;DHT22;7667;51.232;17.110;2023-03-23T16:14:12;15.50;99.90
15133;DHT22;7667;51.232;17.110;2023-03-23T16:16:48;15.40;99.90
15133;DHT22;7667;51.232;17.110;2023-03-23T16:19:17;15.40;99.90
15133;DHT22;7667;51.232;17.110;2023-03-23T16:21:46;15.40;99.90
15133;DHT22;7667;51.232;17.110;2023-03-23T16:24:14;15.30;99.90
15133;DHT22;7667;51.232;17.110;2023-03-23T16:26:41;15.30;99.90
15133;DHT22;7667;51.232;17.110;2023-03-23T16:29:12;15.20;99.90
15133;DHT22;7667;51.232;17.110;2023-03-23T16:32:00;15.10;99.90
15133;DHT22;7667;51.232;17.110;2023-03-23T16:34:27;15.10;99.90
15133;DHT22;7667;51.232;17.110;2023-03-23T16:36:58;15.10;99.90
15133;DHT22;7667;51.232;17.110;2023-03-23T16:39:27;15.00;99.90
15133;DHT22;7667;51.232;17.110;2023-03-23T16:41:54;15.00;99.90
15133;DHT22;7667;51.232;17.110;2023-03-23T16:44:22;14.90;99.90
15133;DHT22;7667;51.232;17.110;2023-03-23T16:46:49;14.80;99.90
15133;DHT22;7667;51.232;17.110;2023-03-23T16:49:17;14.70;99.90
15133;DHT22;7667;51.232;17.110;2023-03-23T16:51:44;14.60;99.90
15133;DHT22;7667;51.232;17.110;2023-03-23T16:54:13;14.60;99.90
15133;DHT22;7667;51.232;17.110;2023-03-23T16:56:40;14.60;99.90
15133;DHT22;7667;51.232;17.110;2023-03-23T16:59:13;14.50;99.90
15133;DHT22;7667;51.232;17.110;2023-03-23T17:01:40;14.50;99.90
15133;DHT22;7667;51.232;17.110;2023-03-23T17:04:09;14.50;99.90
15133;DHT22;7667;51.232;17.110;2023-03-23T17:06:38;14.40;99.90
15133;DHT22;7667;51.232;17.110;2023-03-23T17:09:05;14.50;99.90
15133;DHT22;7667;51.232;17.110;2023-03-23T17:11:33;14.50;99.90
15133;DHT22;7667;51.232;17.110;2023-03-23T17:14:01;14.50;99.90
15133;DHT22;7667;51.232;17.110;2023-03-23T17:16:29;14.50;99.90
15133;DHT22;7667;51.232;17.110;2023-03-23T17:18:57;14.50;99.90
15133;DHT22;7667;51.232;17.110;2023-03-23T17:21:24;14.50;99.90
15133;DHT22;7667;51.232;17.110;2023-03-23T17:23:52;14.40;99.90
15133;DHT22;7667;51.232;17.110;2023-03-23T17:26:20;14.40;99.90
15133;DHT22;7667;51.232;17.110;2023-03-23T17:28:47;14.30;99.90
15133;DHT22;7667;51.232;17.110;2023-03-23T17:31:15;14.30;99.90
15133;DHT22;7667;51.232;17.110;2023-03-23T17:33:42;14.20;99.90
15133;DHT22;7667;51.232;17.110;2023-03-23T17:36:10;14.20;99.90
15133;DHT22;7667;51.232;17.110;2023-03-23T17:38:38;14.20;99.90
15133;DHT22;7667;51.232;17.110;2023-03-23T17:41:05;14.20;99.90
15133;DHT22;7667;51.232;17.110;2023-03-23T17:43:34;14.20;99.90